Ter Streep — ORDJ — position and weather

sailwx.info

Track history (hours):
 
Tides and Currents Weather Stations Pressure Air Temp Water Temp Dewpoint Dewpoint Depression Visibility Wind Speed Wind Dir Waves Ship Positions

Oceanographic research ship Ter Streep (Belgium)

Detailed information on ship capabilities available from University of Delaware's Ocean Information Center.

Last reported at 2017-May-24 14:06 UTC. Time now 2017-May-28 08:34 UTC.
Position N 51°14' E 002°56'.

Length 50 m; draft 3.7 m.

Type: Ship. MMSI: 205112000.

Date/timePositionNaut miles runAvg speedWind from/ knotsBaromVisibWave heightAir tempDewpointWater temp
2017-May-24 14:06N 51°14' E 002°56'4 7.2
2017-May-24 13:30N 51°17' E 002°52'510.0
2017-May-24 13:01N 51°22' E 002°56'0 0.6
2017-May-24 12:31N 51°22' E 002°56'0 0.4
2017-May-24 12:00N 51°21' E 002°56'0 0.5
2017-May-24 11:31N 51°21' E 002°56'0 0.2
2017-May-24 11:01N 51°21' E 002°56'0 0.4
2017-May-24 10:30N 51°22' E 002°56'0 0.3
2017-May-24 10:00N 51°22' E 002°56'0 0.3
2017-May-24 09:31N 51°22' E 002°56'0 0.5
2017-May-24 09:01N 51°22' E 002°56'0 0.3
2017-May-24 08:30N 51°22' E 002°56'0 0.2
2017-May-24 08:01N 51°21' E 002°56'0 0.6
2017-May-24 07:30N 51°21' E 002°55'2 4.7
2017-May-24 07:01N 51°19' E 002°53'5 9.6
2017-May-24 06:31N 51°15' E 002°55'1 2.4
2017-May-24 06:00N 51°14' E 002°56'0 0.0
2017-May-24 05:30N 51°14' E 002°56'0 0.0
2017-May-24 05:00N 51°14' E 002°56'0 0.0
2017-May-24 04:30N 51°14' E 002°56'0 0.0
2017-May-24 04:00N 51°14' E 002°56'0 0.0
2017-May-24 03:30N 51°14' E 002°56'0 0.0
2017-May-24 03:00N 51°14' E 002°56'0 0.0
2017-May-24 02:30N 51°14' E 002°56'0 0.0
2017-May-24 02:00N 51°14' E 002°56'0 0.0
2017-May-24 01:30N 51°14' E 002°56'0 0.0
2017-May-24 00:57N 51°14' E 002°56'0 0.0
2017-May-24 00:29N 51°14' E 002°56'0 0.0
2017-May-23 23:45N 51°14' E 002°56'0 0.0
2017-May-23 23:28N 51°14' E 002°56'0 0.0
2017-May-23 22:52N 51°14' E 002°56'0 0.0
2017-May-23 22:19N 51°14' E 002°56'0 0.0
2017-May-23 22:00N 51°14' E 002°56'0 0.0
2017-May-23 21:29N 51°14' E 002°56'0 0.0
2017-May-23 20:58N 51°14' E 002°56'0 0.0
2017-May-23 20:20N 51°14' E 002°56'0 0.0
2017-May-23 19:58N 51°14' E 002°56'0 0.0
2017-May-23 19:25N 51°14' E 002°56'0 0.0
2017-May-23 19:00N 51°14' E 002°56'0 0.0
2017-May-23 18:30N 51°14' E 002°56'0 0.0
2017-May-23 18:00N 51°14' E 002°56'0 0.0
2017-May-23 17:29N 51°14' E 002°56'0 0.0
2017-May-23 16:49N 51°14' E 002°56'0 0.0
2017-May-23 16:29N 51°14' E 002°56'0 0.0
2017-May-23 15:40N 51°14' E 002°56'0 0.0
2017-May-23 15:28N 51°14' E 002°56'0 0.0
2017-May-23 14:56N 51°14' E 002°56'0 0.0
2017-May-23 14:22N 51°14' E 002°56'5 5.1
2017-May-23 13:28N 51°18' E 002°52'3 5.5
2017-May-23 12:57N 51°20' E 002°50'1 1.1
2017-May-23 12:25N 51°20' E 002°51'1 1.3
2017-May-23 12:00N 51°20' E 002°50'1 1.3
2017-May-23 11:30N 51°20' E 002°49'1 1.4
2017-May-23 10:57N 51°19' E 002°48'1 1.6
2017-May-23 10:29N 51°19' E 002°47'1 1.8
2017-May-23 10:00N 51°18' E 002°47'1 1.8
2017-May-23 09:28N 51°18' E 002°45'1 1.8
2017-May-23 08:57N 51°17' E 002°46'0 0.9
2017-May-23 08:30N 51°17' E 002°45'0 0.9
2017-May-23 08:00N 51°17' E 002°45'4 7.9
2017-May-23 07:30N 51°16' E 002°50'4 7.9
2017-May-23 06:58N 51°14' E 002°56'0 0.0
2017-May-23 06:30N 51°14' E 002°56'0 0.0
2017-May-23 05:59N 51°14' E 002°56'0 0.0
2017-May-23 05:28N 51°14' E 002°56'0 0.0
2017-May-23 04:57N 51°14' E 002°56'0 0.0
2017-May-23 04:29N 51°14' E 002°56'0 0.0
2017-May-23 04:00N 51°14' E 002°56'0 0.0
2017-May-23 03:30N 51°14' E 002°56'0 0.0
2017-May-23 03:00N 51°14' E 002°56'0 0.0
2017-May-23 02:20N 51°14' E 002°56'0 0.0
2017-May-23 02:00N 51°14' E 002°56'0 0.0
2017-May-23 01:30N 51°14' E 002°56'0 0.0
2017-May-23 01:00N 51°14' E 002°56'0 0.0
2017-May-23 00:27N 51°14' E 002°56'0 0.0
2017-May-23 00:00N 51°14' E 002°56'0 0.0
2017-May-22 23:30N 51°14' E 002°56'0 0.0
2017-May-22 22:55N 51°14' E 002°56'0 0.0
2017-May-22 22:29N 51°14' E 002°56'0 0.0
2017-May-22 22:00N 51°14' E 002°56'0 0.0
2017-May-22 21:31N 51°14' E 002°56'0 0.0
2017-May-22 20:59N 51°14' E 002°56'0 0.0
2017-May-22 20:28N 51°14' E 002°56'0 0.0
2017-May-22 19:59N 51°14' E 002°56'0 0.0
2017-May-22 19:26N 51°14' E 002°56'0 0.0
2017-May-22 14:45N 51°14' E 002°56'1 0.8
2017-May-22 13:57N 51°14' E 002°55'510.1
2017-May-22 13:30N 51°16' E 002°49'5 9.7
2017-May-22 13:00N 51°18' E 002°42'1 2.3
2017-May-22 12:29N 51°19' E 002°42'1 2.0
2017-May-22 11:46N 51°20' E 002°43'1 3.9
2017-May-22 11:24N 51°19' E 002°42'1 2.6
2017-May-22 10:52N 51°18' E 002°41'1 2.6
2017-May-22 10:28N 51°19' E 002°42'2 4.0
2017-May-22 10:00N 51°20' E 002°44'2 3.4
2017-May-22 09:28N 51°19' E 002°42'1 1.7
2017-May-22 08:58N 51°18' E 002°42'1 0.9
2017-May-22 08:23N 51°18' E 002°42'1 3.9
2017-May-22 08:00N 51°17' E 002°44'510.6
2017-May-22 07:30N 51°15' E 002°52'3 5.2
2017-May-22 06:55N 51°14' E 002°56'0 0.0
2017-May-22 06:26N 51°14' E 002°56'0 0.0
2017-May-22 05:55N 51°14' E 002°56'0 0.0
2017-May-22 05:30N 51°14' E 002°56'0 0.0
2017-May-22 04:59N 51°14' E 002°56'0 0.0
2017-May-22 04:24N 51°14' E 002°56'0 0.0
2017-May-22 04:00N 51°14' E 002°56'0 0.0
2017-May-22 03:27N 51°14' E 002°56'0 0.0
2017-May-22 02:56N 51°14' E 002°56'0 0.0
2017-May-22 02:29N 51°14' E 002°56'0 0.0
2017-May-22 01:23N 51°14' E 002°56'0 0.0
2017-May-22 00:49N 51°14' E 002°56'0 0.0
2017-May-22 00:30N 51°14' E 002°56'0 0.0
2017-May-21 23:58N 51°14' E 002°56'0 0.0
2017-May-21 23:29N 51°14' E 002°56'0 0.0
2017-May-21 23:00N 51°14' E 002°56'0 0.0
2017-May-21 22:31N 51°14' E 002°56'0 0.0
2017-May-21 22:00N 51°14' E 002°56'0 0.0
2017-May-21 21:30N 51°14' E 002°56'0 0.0
2017-May-21 21:00N 51°14' E 002°56'0 0.0
2017-May-21 20:31N 51°14' E 002°56'0 0.0
2017-May-21 20:00N 51°14' E 002°56'0 0.0
2017-May-21 19:15N 51°14' E 002°56'0 0.0
2017-May-21 19:00N 51°14' E 002°56'0 0.0
2017-May-21 18:29N 51°14' E 002°56'0 0.0
2017-May-21 18:00N 51°14' E 002°56'0 0.0
2017-May-21 17:29N 51°14' E 002°56'0 0.0
2017-May-21 16:58N 51°14' E 002°56'0 0.0
2017-May-21 16:28N 51°14' E 002°56'0 0.0
2017-May-21 15:57N 51°14' E 002°56'0 0.0
2017-May-21 15:28N 51°14' E 002°56'0 0.0
2017-May-21 15:00N 51°14' E 002°56'0 0.0
2017-May-21 13:56N 51°14' E 002°56'0 0.0
2017-May-21 13:28N 51°14' E 002°56'0 0.0
2017-May-21 12:59N 51°14' E 002°56'0 0.0
2017-May-21 12:30N 51°14' E 002°56'0 0.0
2017-May-21 11:59N 51°14' E 002°56'0 0.0
2017-May-21 11:29N 51°14' E 002°56'0 0.0
2017-May-21 10:59N 51°14' E 002°56'0 0.0
2017-May-21 10:29N 51°14' E 002°56'0 0.0
2017-May-21 09:59N 51°14' E 002°56'0 0.0
2017-May-21 09:29N 51°14' E 002°56'0 0.0
2017-May-21 08:59N 51°14' E 002°56'0 0.0
2017-May-21 08:20N 51°14' E 002°56'0 0.0
2017-May-21 07:43N 51°14' E 002°56'0 0.0
2017-May-21 07:28N 51°14' E 002°56'0 0.0
2017-May-21 06:54N 51°14' E 002°56'0 0.0
2017-May-21 06:30N 51°14' E 002°56'0 0.0
2017-May-21 05:59N 51°14' E 002°56'0 0.0
2017-May-21 05:29N 51°14' E 002°56'0 0.0
2017-May-21 05:00N 51°14' E 002°56'0 0.0
2017-May-21 04:30N 51°14' E 002°56'0 0.0
2017-May-21 03:58N 51°14' E 002°56'0 0.0
2017-May-21 03:28N 51°14' E 002°56'0 0.0
2017-May-21 02:56N 51°14' E 002°56'0 0.0
2017-May-21 02:30N 51°14' E 002°56'0 0.0
2017-May-21 01:59N 51°14' E 002°56'0 0.0
2017-May-21 01:19N 51°14' E 002°56'0 0.0
2017-May-21 00:54N 51°14' E 002°56'0 0.0
2017-May-21 00:29N 51°14' E 002°56'0 0.0
2017-May-20 23:57N 51°14' E 002°56'0 0.0
2017-May-20 23:30N 51°14' E 002°56'0 0.0
2017-May-20 22:56N 51°14' E 002°56'0 0.0
2017-May-20 22:28N 51°14' E 002°56'0 0.0
2017-May-20 22:00N 51°14' E 002°56'0 0.0
2017-May-20 21:24N 51°14' E 002°56'0 0.0
2017-May-20 20:35N 51°14' E 002°56'0 0.1
2017-May-20 20:29N 51°14' E 002°56'0 0.0
2017-May-20 20:00N 51°14' E 002°56'0 0.0
2017-May-20 19:25N 51°14' E 002°56'0 0.0
2017-May-20 18:58N 51°14' E 002°56'0 0.0
2017-May-20 18:28N 51°14' E 002°56'0 0.0
2017-May-20 18:00N 51°14' E 002°56'0 0.0
2017-May-20 17:29N 51°14' E 002°56'0 0.0
2017-May-20 16:59N 51°14' E 002°56'0 0.0
2017-May-20 16:30N 51°14' E 002°56'0 0.0
2017-May-20 15:57N 51°14' E 002°56'0 0.0
2017-May-20 15:30N 51°14' E 002°56'0 0.0
2017-May-20 14:57N 51°14' E 002°56'0 0.0
2017-May-20 13:41N 51°14' E 002°56'0 0.0
2017-May-20 13:26N 51°14' E 002°56'0 0.0
2017-May-20 12:57N 51°14' E 002°56'0 0.0
2017-May-20 12:29N 51°14' E 002°56'0 0.0
2017-May-20 12:00N 51°14' E 002°56'0 0.0
2017-May-20 11:25N 51°14' E 002°56'0 0.0
2017-May-20 10:59N 51°14' E 002°56'0 0.0
2017-May-20 10:27N 51°14' E 002°56'0 0.0
2017-May-20 10:00N 51°14' E 002°56'0 0.0
2017-May-20 09:29N 51°14' E 002°56'0 0.0
2017-May-20 08:59N 51°14' E 002°56'0 0.0
2017-May-20 08:29N 51°14' E 002°56'0 0.0
2017-May-20 07:59N 51°14' E 002°56'0 0.0
2017-May-20 07:28N 51°14' E 002°56'0 0.0
2017-May-20 07:00N 51°14' E 002°56'0 0.0
2017-May-20 06:29N 51°14' E 002°56'0 0.0
2017-May-20 05:57N 51°14' E 002°56'0 0.0
2017-May-20 05:29N 51°14' E 002°56'0 0.0
2017-May-20 04:59N 51°14' E 002°56'0 0.0
2017-May-20 04:24N 51°14' E 002°56'0 0.0
2017-May-20 03:55N 51°14' E 002°56'0 0.0
2017-May-20 03:27N 51°14' E 002°56'0 0.0
2017-May-20 02:59N 51°14' E 002°56'0 0.0
2017-May-20 02:22N 51°14' E 002°56'0 0.0
2017-May-20 01:58N 51°14' E 002°56'0 0.0
2017-May-20 01:28N 51°14' E 002°56'0 0.0
2017-May-20 00:55N 51°14' E 002°56'0 0.0
2017-May-20 00:29N 51°14' E 002°56'0 0.0
2017-May-19 23:59N 51°14' E 002°56'0 0.0
2017-May-19 23:24N 51°14' E 002°56'0 0.0
2017-May-19 23:00N 51°14' E 002°56'0 0.0
2017-May-19 22:30N 51°14' E 002°56'0 0.0
2017-May-19 22:00N 51°14' E 002°56'0 0.0
2017-May-19 21:31N 51°14' E 002°56'0 0.0
2017-May-19 20:59N 51°14' E 002°56'0 0.0
2017-May-19 20:29N 51°14' E 002°56'0 0.0
2017-May-19 20:00N 51°14' E 002°56'0 0.0
2017-May-19 19:30N 51°14' E 002°56'0 0.0
2017-May-19 18:59N 51°14' E 002°56'0 0.0
2017-May-19 18:30N 51°14' E 002°56'0 0.0
2017-May-19 18:00N 51°14' E 002°56'0 0.0
2017-May-19 17:29N 51°14' E 002°56'0 0.0
2017-May-19 16:59N 51°14' E 002°56'0 0.0
2017-May-19 16:30N 51°14' E 002°56'0 0.0
2017-May-19 16:00N 51°14' E 002°56'0 0.0
2017-May-19 15:29N 51°14' E 002°56'0 0.0
2017-May-19 15:00N 51°14' E 002°56'0 0.0
2017-May-19 14:00N 51°14' E 002°56'0 0.0
2017-May-19 13:30N 51°14' E 002°56'0 0.0
2017-May-19 13:01N 51°14' E 002°56'0 0.0
2017-May-19 12:30N 51°14' E 002°56'0 0.0
2017-May-19 12:00N 51°14' E 002°56'0 0.0
2017-May-19 11:23N 51°14' E 002°56'0 0.0
2017-May-19 10:57N 51°14' E 002°56'0 0.0
2017-May-19 10:27N 51°14' E 002°56'0 0.0
2017-May-19 10:00N 51°14' E 002°56'0 0.0
2017-May-19 09:26N 51°14' E 002°56'0 0.0
2017-May-19 09:00N 51°14' E 002°56'0 0.0
2017-May-19 08:29N 51°14' E 002°56'0 0.0
2017-May-19 07:58N 51°14' E 002°56'0 0.0
2017-May-19 07:30N 51°14' E 002°56'0 0.0
2017-May-19 06:56N 51°14' E 002°56'0 0.0
2017-May-19 06:29N 51°14' E 002°56'0 0.0
2017-May-19 05:37N 51°14' E 002°56'0 0.0
2017-May-19 05:27N 51°14' E 002°56'0 0.0
2017-May-19 04:59N 51°14' E 002°56'0 0.0
2017-May-19 04:28N 51°14' E 002°56'0 0.0
2017-May-19 03:48N 51°14' E 002°56'0 0.0
2017-May-19 03:28N 51°14' E 002°56'0 0.0
2017-May-19 02:54N 51°14' E 002°56'0 0.0
2017-May-19 02:27N 51°14' E 002°56'0 0.0
2017-May-19 01:58N 51°14' E 002°56'0 0.0
2017-May-19 01:23N 51°14' E 002°56'0 0.0
2017-May-19 01:00N 51°14' E 002°56'0 0.0
2017-May-19 00:24N 51°14' E 002°56'0 0.0
2017-May-18 23:59N 51°14' E 002°56'0 0.0
2017-May-18 23:17N 51°14' E 002°56'0 0.0
2017-May-18 23:00N 51°14' E 002°56'0 0.0
2017-May-18 22:29N 51°14' E 002°56'0 0.0
2017-May-18 22:00N 51°14' E 002°56'0 0.0
2017-May-18 21:30N 51°14' E 002°56'0 0.0
2017-May-18 20:56N 51°14' E 002°56'0 0.0
2017-May-18 20:27N 51°14' E 002°56'0 0.0
2017-May-18 20:00N 51°14' E 002°56'0 0.0
2017-May-18 18:55N 51°14' E 002°56'0 0.0
2017-May-18 18:25N 51°14' E 002°56'0 0.0
2017-May-18 17:52N 51°14' E 002°56'0 0.0
2017-May-18 15:12N 51°14' E 002°56'0 0.0
2017-May-18 14:57N 51°14' E 002°56'3 2.9
2017-May-18 14:00N 51°15' E 002°52'510.4
2017-May-18 13:29N 51°14' E 002°43'3 6.5
2017-May-18 12:58N 51°13' E 002°38'4 7.9
2017-May-18 12:29N 51°10' E 002°35'2 4.9
2017-May-18 12:00N 51°08' E 002°33'4 8.2
2017-May-18 11:27N 51°12' E 002°37'4 7.4
2017-May-18 10:57N 51°15' E 002°40'511.7
2017-May-18 10:30N 51°20' E 002°39'7 6.0
2017-May-18 09:24N 51°27' E 002°39'2 1.9
2017-May-18 08:27N 51°28' E 002°38'2 3.1
2017-May-18 07:57N 51°27' E 002°38'4 7.1
2017-May-18 07:20N 51°23' E 002°42'411.6
2017-May-18 06:59N 51°20' E 002°46'511.5
2017-May-18 06:30N 51°16' E 002°53'3 6.6
2017-May-18 05:59N 51°14' E 002°56'0 0.0
2017-May-18 05:29N 51°14' E 002°56'0 0.0
2017-May-18 04:54N 51°14' E 002°56'0 0.0
2017-May-18 04:29N 51°14' E 002°56'0 0.0
2017-May-18 03:57N 51°14' E 002°56'0 0.0
2017-May-18 03:27N 51°14' E 002°56'0 0.0
2017-May-18 02:58N 51°14' E 002°56'0 0.0
2017-May-18 02:30N 51°14' E 002°56'0 0.0
2017-May-18 02:00N 51°14' E 002°56'0 0.0
2017-May-18 01:28N 51°14' E 002°56'0 0.0
2017-May-18 00:47N 51°14' E 002°56'0 0.0
2017-May-18 00:28N 51°14' E 002°56'0 0.0
2017-May-17 23:56N 51°14' E 002°56'0 0.0
2017-May-17 23:29N 51°14' E 002°56'0 0.0
2017-May-17 22:59N 51°14' E 002°56'0 0.0
2017-May-17 22:28N 51°14' E 002°56'0 0.0
2017-May-17 22:00N 51°14' E 002°56'0 0.0
2017-May-17 21:28N 51°14' E 002°56'0 0.0
2017-May-17 20:59N 51°14' E 002°56'0 0.0
2017-May-17 20:27N 51°14' E 002°56'0 0.0
2017-May-17 19:59N 51°14' E 002°56'0 0.0
2017-May-17 19:29N 51°14' E 002°56'0 0.0
2017-May-17 18:59N 51°14' E 002°56'0 0.0
2017-May-17 18:24N 51°14' E 002°56'0 0.0
2017-May-17 17:59N 51°14' E 002°56'0 0.0
2017-May-17 17:29N 51°14' E 002°56'0 0.0
2017-May-17 17:00N 51°14' E 002°56'0 0.0
2017-May-17 16:30N 51°14' E 002°56'0 0.0
2017-May-17 14:54N 51°14' E 002°56'0 0.0
2017-May-17 14:00N 51°14' E 002°56'3 6.4
2017-May-17 13:30N 51°16' E 002°53'510.6
2017-May-17 13:00N 51°20' E 002°47'5 8.7
2017-May-17 12:27N 51°23' E 002°41'4 8.5
2017-May-17 12:00N 51°26' E 002°38'2 4.4
2017-May-17 11:29N 51°29' E 002°38'0 0.5
2017-May-17 11:00N 51°28' E 002°38'1 2.2
2017-May-17 10:27N 51°27' E 002°38'2 2.8
2017-May-17 09:41N 51°29' E 002°38'1 7.8
2017-May-17 09:30N 51°28' E 002°38'1 2.3
2017-May-17 08:58N 51°29' E 002°39'2 3.9
2017-May-17 08:30N 51°31' E 002°38'4 8.1
2017-May-17 07:59N 51°27' E 002°38'2 3.0
2017-May-17 07:28N 51°25' E 002°39'611.4
2017-May-17 06:58N 51°21' E 002°45'511.7
2017-May-17 06:30N 51°18' E 002°52'5 9.5
2017-May-17 06:00N 51°14' E 002°56'0 0.0
2017-May-17 05:29N 51°14' E 002°56'0 0.0
2017-May-17 05:00N 51°14' E 002°56'0 0.0
2017-May-17 04:30N 51°14' E 002°56'0 0.0
2017-May-17 04:00N 51°14' E 002°56'0 0.0
2017-May-17 03:30N 51°14' E 002°56'0 0.0
2017-May-17 03:00N 51°14' E 002°56'0 0.0
2017-May-17 02:30N 51°14' E 002°56'0 0.0
2017-May-17 01:58N 51°14' E 002°56'0 0.0
2017-May-17 01:30N 51°14' E 002°56'0 0.0
2017-May-17 01:00N 51°14' E 002°56'0 0.0
2017-May-17 00:29N 51°14' E 002°56'0 0.0
2017-May-16 23:58N 51°14' E 002°56'0 0.0
2017-May-16 23:29N 51°14' E 002°56'0 0.0
2017-May-16 23:00N 51°14' E 002°56'0 0.0
2017-May-16 22:30N 51°14' E 002°56'0 0.0
2017-May-16 21:51N 51°14' E 002°56'0 0.0
2017-May-16 21:31N 51°14' E 002°56'0 0.0
2017-May-16 20:54N 51°14' E 002°56'0 0.0
2017-May-16 20:30N 51°14' E 002°56'0 0.0
2017-May-16 19:59N 51°14' E 002°56'0 0.0
2017-May-16 19:31N 51°14' E 002°56'0 0.0
2017-May-16 18:58N 51°14' E 002°56'0 0.0
2017-May-16 18:27N 51°14' E 002°56'0 0.0
2017-May-16 18:00N 51°14' E 002°56'0 0.0
2017-May-16 16:27N 51°14' E 002°56'0 0.0
2017-May-16 15:58N 51°14' E 002°56'0 0.0
2017-May-16 15:29N 51°14' E 002°56'0 0.0
2017-May-16 14:58N 51°14' E 002°56'0 0.0
2017-May-16 14:00N 51°14' E 002°56'3 5.3
2017-May-16 13:30N 51°16' E 002°54'5 8.9
2017-May-16 13:00N 51°19' E 002°49'4 8.6
2017-May-16 12:30N 51°21' E 002°43'4 8.9
2017-May-16 12:00N 51°25' E 002°39'2 3.0
2017-May-16 11:29N 51°26' E 002°39'4 7.8
2017-May-16 10:59N 51°30' E 002°39'3 6.0
2017-May-16 10:29N 51°33' E 002°39'4 7.4
2017-May-16 10:00N 51°30' E 002°39'0 0.8
2017-May-16 09:29N 51°30' E 002°39'0 0.3
2017-May-16 08:49N 51°30' E 002°39'3 8.0
2017-May-16 08:30N 51°28' E 002°39'0 0.5
2017-May-16 08:00N 51°27' E 002°39'2 4.4
2017-May-16 07:30N 51°25' E 002°39'611.9
2017-May-16 07:00N 51°21' E 002°45'611.7
2017-May-16 06:30N 51°17' E 002°53'4 8.0
2017-May-16 06:00N 51°14' E 002°56'0 0.0
2017-May-16 05:30N 51°14' E 002°56'0 0.0
2017-May-16 04:59N 51°14' E 002°56'0 0.0
2017-May-16 04:30N 51°14' E 002°56'0 0.0
2017-May-16 04:00N 51°14' E 002°56'0 0.0
2017-May-16 03:30N 51°14' E 002°56'0 0.0
2017-May-16 02:59N 51°14' E 002°56'0 0.0
2017-May-16 02:30N 51°14' E 002°56'0 0.0
2017-May-16 01:57N 51°14' E 002°56'0 0.0
2017-May-16 01:30N 51°14' E 002°56'0 0.0
2017-May-16 00:59N 51°14' E 002°56'0 0.0
2017-May-16 00:21N 51°14' E 002°56'0 0.0
2017-May-15 23:54N 51°14' E 002°56'0 0.0
2017-May-15 23:28N 51°14' E 002°56'0 0.0
2017-May-15 21:55N 51°14' E 002°56'0 0.0
2017-May-15 20:22N 51°14' E 002°56'0 0.0
2017-May-15 20:00N 51°14' E 002°56'0 0.0
2017-May-15 19:29N 51°14' E 002°56'0 0.0
2017-May-15 19:00N 51°14' E 002°56'0 0.0
2017-May-15 18:30N 51°14' E 002°56'0 0.0
2017-May-15 17:57N 51°14' E 002°56'0 0.0
2017-May-15 17:25N 51°14' E 002°56'0 0.0
2017-May-15 16:59N 51°14' E 002°56'0 0.0
2017-May-15 16:30N 51°14' E 002°56'0 0.0
2017-May-15 15:59N 51°14' E 002°56'0 0.0
2017-May-15 15:18N 51°14' E 002°56'0 0.0
2017-May-15 14:52N 51°14' E 002°56'0 0.0
2017-May-15 13:59N 51°14' E 002°56'3 6.0
2017-May-15 13:30N 51°16' E 002°53'510.8
2017-May-15 13:00N 51°20' E 002°47'511.1
2017-May-15 12:30N 51°23' E 002°41'5 7.9
2017-May-15 11:56N 51°27' E 002°38'2 0.5
2017-May-15 08:20N 51°29' E 002°38'4 6.1
2017-May-15 07:44N 51°26' E 002°37'1 4.8
2017-May-15 07:30N 51°25' E 002°38'612.0
2017-May-15 07:01N 51°21' E 002°45'611.7
2017-May-15 06:30N 51°17' E 002°53'4 8.1
2017-May-15 06:01N 51°14' E 002°56'0 0.0
2017-May-15 05:30N 51°14' E 002°56'  
Track history (hours):
 
Tides and Currents Weather Stations Pressure Air Temp Water Temp Dewpoint Dewpoint Depression Visibility Wind Speed Wind Dir Waves Ship Positions

Oceanographic research ship Ter Streep (Belgium)

Detailed information on ship capabilities available from University of Delaware's Ocean Information Center.

Last reported at 2017-May-24 14:06 UTC. Time now 2017-May-28 08:34 UTC.
Position N 51°14' E 002°56'.

Length 50 m; draft 3.7 m.

Type: Ship. MMSI: 205112000.

Date/timePositionNaut miles runAvg speedWind from/ knotsBaromVisibWave heightAir tempDewpointWater temp
2017-May-24 14:06N 51°14' E 002°56'4 7.2
2017-May-24 13:30N 51°17' E 002°52'510.0
2017-May-24 13:01N 51°22' E 002°56'0 0.6
2017-May-24 12:31N 51°22' E 002°56'0 0.4
2017-May-24 12:00N 51°21' E 002°56'0 0.5
2017-May-24 11:31N 51°21' E 002°56'0 0.2
2017-May-24 11:01N 51°21' E 002°56'0 0.4
2017-May-24 10:30N 51°22' E 002°56'0 0.3
2017-May-24 10:00N 51°22' E 002°56'0 0.3
2017-May-24 09:31N 51°22' E 002°56'0 0.5
2017-May-24 09:01N 51°22' E 002°56'0 0.3
2017-May-24 08:30N 51°22' E 002°56'0 0.2
2017-May-24 08:01N 51°21' E 002°56'0 0.6
2017-May-24 07:30N 51°21' E 002°55'2 4.7
2017-May-24 07:01N 51°19' E 002°53'5 9.6
2017-May-24 06:31N 51°15' E 002°55'1 2.4
2017-May-24 06:00N 51°14' E 002°56'0 0.0
2017-May-24 05:30N 51°14' E 002°56'0 0.0
2017-May-24 05:00N 51°14' E 002°56'0 0.0
2017-May-24 04:30N 51°14' E 002°56'0 0.0
2017-May-24 04:00N 51°14' E 002°56'0 0.0
2017-May-24 03:30N 51°14' E 002°56'0 0.0
2017-May-24 03:00N 51°14' E 002°56'0 0.0
2017-May-24 02:30N 51°14' E 002°56'0 0.0
2017-May-24 02:00N 51°14' E 002°56'0 0.0
2017-May-24 01:30N 51°14' E 002°56'0 0.0
2017-May-24 00:57N 51°14' E 002°56'0 0.0
2017-May-24 00:29N 51°14' E 002°56'0 0.0
2017-May-23 23:45N 51°14' E 002°56'0 0.0
2017-May-23 23:28N 51°14' E 002°56'0 0.0
2017-May-23 22:52N 51°14' E 002°56'0 0.0
2017-May-23 22:19N 51°14' E 002°56'0 0.0
2017-May-23 22:00N 51°14' E 002°56'0 0.0
2017-May-23 21:29N 51°14' E 002°56'0 0.0
2017-May-23 20:58N 51°14' E 002°56'0 0.0
2017-May-23 20:20N 51°14' E 002°56'0 0.0
2017-May-23 19:58N 51°14' E 002°56'0 0.0
2017-May-23 19:25N 51°14' E 002°56'0 0.0
2017-May-23 19:00N 51°14' E 002°56'0 0.0
2017-May-23 18:30N 51°14' E 002°56'0 0.0
2017-May-23 18:00N 51°14' E 002°56'0 0.0
2017-May-23 17:29N 51°14' E 002°56'0 0.0
2017-May-23 16:49N 51°14' E 002°56'0 0.0
2017-May-23 16:29N 51°14' E 002°56'0 0.0
2017-May-23 15:40N 51°14' E 002°56'0 0.0
2017-May-23 15:28N 51°14' E 002°56'0 0.0
2017-May-23 14:56N 51°14' E 002°56'0 0.0
2017-May-23 14:22N 51°14' E 002°56'5 5.1
2017-May-23 13:28N 51°18' E 002°52'3 5.5
2017-May-23 12:57N 51°20' E 002°50'1 1.1
2017-May-23 12:25N 51°20' E 002°51'1 1.3
2017-May-23 12:00N 51°20' E 002°50'1 1.3
2017-May-23 11:30N 51°20' E 002°49'1 1.4
2017-May-23 10:57N 51°19' E 002°48'1 1.6
2017-May-23 10:29N 51°19' E 002°47'1 1.8
2017-May-23 10:00N 51°18' E 002°47'1 1.8
2017-May-23 09:28N 51°18' E 002°45'1 1.8
2017-May-23 08:57N 51°17' E 002°46'0 0.9
2017-May-23 08:30N 51°17' E 002°45'0 0.9
2017-May-23 08:00N 51°17' E 002°45'4 7.9
2017-May-23 07:30N 51°16' E 002°50'4 7.9
2017-May-23 06:58N 51°14' E 002°56'0 0.0
2017-May-23 06:30N 51°14' E 002°56'0 0.0
2017-May-23 05:59N 51°14' E 002°56'0 0.0
2017-May-23 05:28N 51°14' E 002°56'0 0.0
2017-May-23 04:57N 51°14' E 002°56'0 0.0
2017-May-23 04:29N 51°14' E 002°56'0 0.0
2017-May-23 04:00N 51°14' E 002°56'0 0.0
2017-May-23 03:30N 51°14' E 002°56'0 0.0
2017-May-23 03:00N 51°14' E 002°56'0 0.0
2017-May-23 02:20N 51°14' E 002°56'0 0.0
2017-May-23 02:00N 51°14' E 002°56'0 0.0
2017-May-23 01:30N 51°14' E 002°56'0 0.0
2017-May-23 01:00N 51°14' E 002°56'0 0.0
2017-May-23 00:27N 51°14' E 002°56'0 0.0
2017-May-23 00:00N 51°14' E 002°56'0 0.0
2017-May-22 23:30N 51°14' E 002°56'0 0.0
2017-May-22 22:55N 51°14' E 002°56'0 0.0
2017-May-22 22:29N 51°14' E 002°56'0 0.0
2017-May-22 22:00N 51°14' E 002°56'0 0.0
2017-May-22 21:31N 51°14' E 002°56'0 0.0
2017-May-22 20:59N 51°14' E 002°56'0 0.0
2017-May-22 20:28N 51°14' E 002°56'0 0.0
2017-May-22 19:59N 51°14' E 002°56'0 0.0
2017-May-22 19:26N 51°14' E 002°56'0 0.0
2017-May-22 14:45N 51°14' E 002°56'1 0.8
2017-May-22 13:57N 51°14' E 002°55'510.1
2017-May-22 13:30N 51°16' E 002°49'5 9.7
2017-May-22 13:00N 51°18' E 002°42'1 2.3
2017-May-22 12:29N 51°19' E 002°42'1 2.0
2017-May-22 11:46N 51°20' E 002°43'1 3.9
2017-May-22 11:24N 51°19' E 002°42'1 2.6
2017-May-22 10:52N 51°18' E 002°41'1 2.6
2017-May-22 10:28N 51°19' E 002°42'2 4.0
2017-May-22 10:00N 51°20' E 002°44'2 3.4
2017-May-22 09:28N 51°19' E 002°42'1 1.7
2017-May-22 08:58N 51°18' E 002°42'1 0.9
2017-May-22 08:23N 51°18' E 002°42'1 3.9
2017-May-22 08:00N 51°17' E 002°44'510.6
2017-May-22 07:30N 51°15' E 002°52'3 5.2
2017-May-22 06:55N 51°14' E 002°56'0 0.0
2017-May-22 06:26N 51°14' E 002°56'0 0.0
2017-May-22 05:55N 51°14' E 002°56'0 0.0
2017-May-22 05:30N 51°14' E 002°56'0 0.0
2017-May-22 04:59N 51°14' E 002°56'0 0.0
2017-May-22 04:24N 51°14' E 002°56'0 0.0
2017-May-22 04:00N 51°14' E 002°56'0 0.0
2017-May-22 03:27N 51°14' E 002°56'0 0.0
2017-May-22 02:56N 51°14' E 002°56'0 0.0
2017-May-22 02:29N 51°14' E 002°56'0 0.0
2017-May-22 01:23N 51°14' E 002°56'0 0.0
2017-May-22 00:49N 51°14' E 002°56'0 0.0
2017-May-22 00:30N 51°14' E 002°56'0 0.0
2017-May-21 23:58N 51°14' E 002°56'0 0.0
2017-May-21 23:29N 51°14' E 002°56'0 0.0
2017-May-21 23:00N 51°14' E 002°56'0 0.0
2017-May-21 22:31N 51°14' E 002°56'0 0.0
2017-May-21 22:00N 51°14' E 002°56'0 0.0
2017-May-21 21:30N 51°14' E 002°56'0 0.0
2017-May-21 21:00N 51°14' E 002°56'0 0.0
2017-May-21 20:31N 51°14' E 002°56'0 0.0
2017-May-21 20:00N 51°14' E 002°56'0 0.0
2017-May-21 19:15N 51°14' E 002°56'0 0.0
2017-May-21 19:00N 51°14' E 002°56'0 0.0
2017-May-21 18:29N 51°14' E 002°56'0 0.0
2017-May-21 18:00N 51°14' E 002°56'0 0.0
2017-May-21 17:29N 51°14' E 002°56'0 0.0
2017-May-21 16:58N 51°14' E 002°56'0 0.0
2017-May-21 16:28N 51°14' E 002°56'0 0.0
2017-May-21 15:57N 51°14' E 002°56'0 0.0
2017-May-21 15:28N 51°14' E 002°56'0 0.0
2017-May-21 15:00N 51°14' E 002°56'0 0.0
2017-May-21 13:56N 51°14' E 002°56'0 0.0
2017-May-21 13:28N 51°14' E 002°56'0 0.0
2017-May-21 12:59N 51°14' E 002°56'0 0.0
2017-May-21 12:30N 51°14' E 002°56'0 0.0
2017-May-21 11:59N 51°14' E 002°56'0 0.0
2017-May-21 11:29N 51°14' E 002°56'0 0.0
2017-May-21 10:59N 51°14' E 002°56'0 0.0
2017-May-21 10:29N 51°14' E 002°56'0 0.0
2017-May-21 09:59N 51°14' E 002°56'0 0.0
2017-May-21 09:29N 51°14' E 002°56'0 0.0
2017-May-21 08:59N 51°14' E 002°56'0 0.0
2017-May-21 08:20N 51°14' E 002°56'0 0.0
2017-May-21 07:43N 51°14' E 002°56'0 0.0
2017-May-21 07:28N 51°14' E 002°56'0 0.0
2017-May-21 06:54N 51°14' E 002°56'0 0.0
2017-May-21 06:30N 51°14' E 002°56'0 0.0
2017-May-21 05:59N 51°14' E 002°56'0 0.0
2017-May-21 05:29N 51°14' E 002°56'0 0.0
2017-May-21 05:00N 51°14' E 002°56'0 0.0
2017-May-21 04:30N 51°14' E 002°56'0 0.0
2017-May-21 03:58N 51°14' E 002°56'0 0.0
2017-May-21 03:28N 51°14' E 002°56'0 0.0
2017-May-21 02:56N 51°14' E 002°56'0 0.0
2017-May-21 02:30N 51°14' E 002°56'0 0.0
2017-May-21 01:59N 51°14' E 002°56'0 0.0
2017-May-21 01:19N 51°14' E 002°56'0 0.0
2017-May-21 00:54N 51°14' E 002°56'0 0.0
2017-May-21 00:29N 51°14' E 002°56'0 0.0
2017-May-20 23:57N 51°14' E 002°56'0 0.0
2017-May-20 23:30N 51°14' E 002°56'0 0.0
2017-May-20 22:56N 51°14' E 002°56'0 0.0
2017-May-20 22:28N 51°14' E 002°56'0 0.0
2017-May-20 22:00N 51°14' E 002°56'0 0.0
2017-May-20 21:24N 51°14' E 002°56'0 0.0
2017-May-20 20:35N 51°14' E 002°56'0 0.1
2017-May-20 20:29N 51°14' E 002°56'0 0.0
2017-May-20 20:00N 51°14' E 002°56'0 0.0
2017-May-20 19:25N 51°14' E 002°56'0 0.0
2017-May-20 18:58N 51°14' E 002°56'0 0.0
2017-May-20 18:28N 51°14' E 002°56'0 0.0
2017-May-20 18:00N 51°14' E 002°56'0 0.0
2017-May-20 17:29N 51°14' E 002°56'0 0.0
2017-May-20 16:59N 51°14' E 002°56'0 0.0
2017-May-20 16:30N 51°14' E 002°56'0 0.0
2017-May-20 15:57N 51°14' E 002°56'0 0.0
2017-May-20 15:30N 51°14' E 002°56'0 0.0
2017-May-20 14:57N 51°14' E 002°56'0 0.0
2017-May-20 13:41N 51°14' E 002°56'0 0.0
2017-May-20 13:26N 51°14' E 002°56'0 0.0
2017-May-20 12:57N 51°14' E 002°56'0 0.0
2017-May-20 12:29N 51°14' E 002°56'0 0.0
2017-May-20 12:00N 51°14' E 002°56'0 0.0
2017-May-20 11:25N 51°14' E 002°56'0 0.0
2017-May-20 10:59N 51°14' E 002°56'0 0.0
2017-May-20 10:27N 51°14' E 002°56'0 0.0
2017-May-20 10:00N 51°14' E 002°56'0 0.0
2017-May-20 09:29N 51°14' E 002°56'0 0.0
2017-May-20 08:59N 51°14' E 002°56'0 0.0
2017-May-20 08:29N 51°14' E 002°56'0 0.0
2017-May-20 07:59N 51°14' E 002°56'0 0.0
2017-May-20 07:28N 51°14' E 002°56'0 0.0
2017-May-20 07:00N 51°14' E 002°56'0 0.0
2017-May-20 06:29N 51°14' E 002°56'0 0.0
2017-May-20 05:57N 51°14' E 002°56'0 0.0
2017-May-20 05:29N 51°14' E 002°56'0 0.0
2017-May-20 04:59N 51°14' E 002°56'0 0.0
2017-May-20 04:24N 51°14' E 002°56'0 0.0
2017-May-20 03:55N 51°14' E 002°56'0 0.0
2017-May-20 03:27N 51°14' E 002°56'0 0.0
2017-May-20 02:59N 51°14' E 002°56'0 0.0
2017-May-20 02:22N 51°14' E 002°56'0 0.0
2017-May-20 01:58N 51°14' E 002°56'0 0.0
2017-May-20 01:28N 51°14' E 002°56'0 0.0
2017-May-20 00:55N 51°14' E 002°56'0 0.0
2017-May-20 00:29N 51°14' E 002°56'0 0.0
2017-May-19 23:59N 51°14' E 002°56'0 0.0
2017-May-19 23:24N 51°14' E 002°56'0 0.0
2017-May-19 23:00N 51°14' E 002°56'0 0.0
2017-May-19 22:30N 51°14' E 002°56'0 0.0
2017-May-19 22:00N 51°14' E 002°56'0 0.0
2017-May-19 21:31N 51°14' E 002°56'0 0.0
2017-May-19 20:59N 51°14' E 002°56'0 0.0
2017-May-19 20:29N 51°14' E 002°56'0 0.0
2017-May-19 20:00N 51°14' E 002°56'0 0.0
2017-May-19 19:30N 51°14' E 002°56'0 0.0
2017-May-19 18:59N 51°14' E 002°56'0 0.0
2017-May-19 18:30N 51°14' E 002°56'0 0.0
2017-May-19 18:00N 51°14' E 002°56'0 0.0
2017-May-19 17:29N 51°14' E 002°56'0 0.0
2017-May-19 16:59N 51°14' E 002°56'0 0.0
2017-May-19 16:30N 51°14' E 002°56'0 0.0
2017-May-19 16:00N 51°14' E 002°56'0 0.0
2017-May-19 15:29N 51°14' E 002°56'0 0.0
2017-May-19 15:00N 51°14' E 002°56'0 0.0
2017-May-19 14:00N 51°14' E 002°56'0 0.0
2017-May-19 13:30N 51°14' E 002°56'0 0.0
2017-May-19 13:01N 51°14' E 002°56'0 0.0
2017-May-19 12:30N 51°14' E 002°56'0 0.0
2017-May-19 12:00N 51°14' E 002°56'0 0.0
2017-May-19 11:23N 51°14' E 002°56'0 0.0
2017-May-19 10:57N 51°14' E 002°56'0 0.0
2017-May-19 10:27N 51°14' E 002°56'0 0.0
2017-May-19 10:00N 51°14' E 002°56'0 0.0
2017-May-19 09:26N 51°14' E 002°56'0 0.0
2017-May-19 09:00N 51°14' E 002°56'0 0.0
2017-May-19 08:29N 51°14' E 002°56'0 0.0
2017-May-19 07:58N 51°14' E 002°56'0 0.0
2017-May-19 07:30N 51°14' E 002°56'0 0.0
2017-May-19 06:56N 51°14' E 002°56'0 0.0
2017-May-19 06:29N 51°14' E 002°56'0 0.0
2017-May-19 05:37N 51°14' E 002°56'0 0.0
2017-May-19 05:27N 51°14' E 002°56'0 0.0
2017-May-19 04:59N 51°14' E 002°56'0 0.0
2017-May-19 04:28N 51°14' E 002°56'0 0.0
2017-May-19 03:48N 51°14' E 002°56'0 0.0
2017-May-19 03:28N 51°14' E 002°56'0 0.0
2017-May-19 02:54N 51°14' E 002°56'0 0.0
2017-May-19 02:27N 51°14' E 002°56'0 0.0
2017-May-19 01:58N 51°14' E 002°56'0 0.0
2017-May-19 01:23N 51°14' E 002°56'0 0.0
2017-May-19 01:00N 51°14' E 002°56'0 0.0
2017-May-19 00:24N 51°14' E 002°56'0 0.0
2017-May-18 23:59N 51°14' E 002°56'0 0.0
2017-May-18 23:17N 51°14' E 002°56'0 0.0
2017-May-18 23:00N 51°14' E 002°56'0 0.0
2017-May-18 22:29N 51°14' E 002°56'0 0.0
2017-May-18 22:00N 51°14' E 002°56'0 0.0
2017-May-18 21:30N 51°14' E 002°56'0 0.0
2017-May-18 20:56N 51°14' E 002°56'0 0.0
2017-May-18 20:27N 51°14' E 002°56'0 0.0
2017-May-18 20:00N 51°14' E 002°56'0 0.0
2017-May-18 18:55N 51°14' E 002°56'0 0.0
2017-May-18 18:25N 51°14' E 002°56'0 0.0
2017-May-18 17:52N 51°14' E 002°56'0 0.0
2017-May-18 15:12N 51°14' E 002°56'0 0.0
2017-May-18 14:57N 51°14' E 002°56'3 2.9
2017-May-18 14:00N 51°15' E 002°52'510.4
2017-May-18 13:29N 51°14' E 002°43'3 6.5
2017-May-18 12:58N 51°13' E 002°38'4 7.9
2017-May-18 12:29N 51°10' E 002°35'2 4.9
2017-May-18 12:00N 51°08' E 002°33'4 8.2
2017-May-18 11:27N 51°12' E 002°37'4 7.4
2017-May-18 10:57N 51°15' E 002°40'511.7
2017-May-18 10:30N 51°20' E 002°39'7 6.0
2017-May-18 09:24N 51°27' E 002°39'2 1.9
2017-May-18 08:27N 51°28' E 002°38'2 3.1
2017-May-18 07:57N 51°27' E 002°38'4 7.1
2017-May-18 07:20N 51°23' E 002°42'411.6
2017-May-18 06:59N 51°20' E 002°46'511.5
2017-May-18 06:30N 51°16' E 002°53'3 6.6
2017-May-18 05:59N 51°14' E 002°56'0 0.0
2017-May-18 05:29N 51°14' E 002°56'0 0.0
2017-May-18 04:54N 51°14' E 002°56'0 0.0
2017-May-18 04:29N 51°14' E 002°56'0 0.0
2017-May-18 03:57N 51°14' E 002°56'0 0.0
2017-May-18 03:27N 51°14' E 002°56'0 0.0
2017-May-18 02:58N 51°14' E 002°56'0 0.0
2017-May-18 02:30N 51°14' E 002°56'0 0.0
2017-May-18 02:00N 51°14' E 002°56'0 0.0
2017-May-18 01:28N 51°14' E 002°56'0 0.0
2017-May-18 00:47N 51°14' E 002°56'0 0.0
2017-May-18 00:28N 51°14' E 002°56'0 0.0
2017-May-17 23:56N 51°14' E 002°56'0 0.0
2017-May-17 23:29N 51°14' E 002°56'0 0.0
2017-May-17 22:59N 51°14' E 002°56'0 0.0
2017-May-17 22:28N 51°14' E 002°56'0 0.0
2017-May-17 22:00N 51°14' E 002°56'0 0.0
2017-May-17 21:28N 51°14' E 002°56'0 0.0
2017-May-17 20:59N 51°14' E 002°56'0 0.0
2017-May-17 20:27N 51°14' E 002°56'0 0.0
2017-May-17 19:59N 51°14' E 002°56'0 0.0
2017-May-17 19:29N 51°14' E 002°56'0 0.0
2017-May-17 18:59N 51°14' E 002°56'0 0.0
2017-May-17 18:24N 51°14' E 002°56'0 0.0
2017-May-17 17:59N 51°14' E 002°56'0 0.0
2017-May-17 17:29N 51°14' E 002°56'0 0.0
2017-May-17 17:00N 51°14' E 002°56'0 0.0
2017-May-17 16:30N 51°14' E 002°56'0 0.0
2017-May-17 14:54N 51°14' E 002°56'0 0.0
2017-May-17 14:00N 51°14' E 002°56'3 6.4
2017-May-17 13:30N 51°16' E 002°53'510.6
2017-May-17 13:00N 51°20' E 002°47'5 8.7
2017-May-17 12:27N 51°23' E 002°41'4 8.5
2017-May-17 12:00N 51°26' E 002°38'2 4.4
2017-May-17 11:29N 51°29' E 002°38'0 0.5
2017-May-17 11:00N 51°28' E 002°38'1 2.2
2017-May-17 10:27N 51°27' E 002°38'2 2.8
2017-May-17 09:41N 51°29' E 002°38'1 7.8
2017-May-17 09:30N 51°28' E 002°38'1 2.3
2017-May-17 08:58N 51°29' E 002°39'2 3.9
2017-May-17 08:30N 51°31' E 002°38'4 8.1
2017-May-17 07:59N 51°27' E 002°38'2 3.0
2017-May-17 07:28N 51°25' E 002°39'611.4
2017-May-17 06:58N 51°21' E 002°45'511.7
2017-May-17 06:30N 51°18' E 002°52'5 9.5
2017-May-17 06:00N 51°14' E 002°56'0 0.0
2017-May-17 05:29N 51°14' E 002°56'0 0.0
2017-May-17 05:00N 51°14' E 002°56'0 0.0
2017-May-17 04:30N 51°14' E 002°56'0 0.0
2017-May-17 04:00N 51°14' E 002°56'0 0.0
2017-May-17 03:30N 51°14' E 002°56'0 0.0
2017-May-17 03:00N 51°14' E 002°56'0 0.0
2017-May-17 02:30N 51°14' E 002°56'0 0.0
2017-May-17 01:58N 51°14' E 002°56'0 0.0
2017-May-17 01:30N 51°14' E 002°56'0 0.0
2017-May-17 01:00N 51°14' E 002°56'0 0.0
2017-May-17 00:29N 51°14' E 002°56'0 0.0
2017-May-16 23:58N 51°14' E 002°56'0 0.0
2017-May-16 23:29N 51°14' E 002°56'0 0.0
2017-May-16 23:00N 51°14' E 002°56'0 0.0
2017-May-16 22:30N 51°14' E 002°56'0 0.0
2017-May-16 21:51N 51°14' E 002°56'0 0.0
2017-May-16 21:31N 51°14' E 002°56'0 0.0
2017-May-16 20:54N 51°14' E 002°56'0 0.0
2017-May-16 20:30N 51°14' E 002°56'0 0.0
2017-May-16 19:59N 51°14' E 002°56'0 0.0
2017-May-16 19:31N 51°14' E 002°56'0 0.0
2017-May-16 18:58N 51°14' E 002°56'0 0.0
2017-May-16 18:27N 51°14' E 002°56'0 0.0
2017-May-16 18:00N 51°14' E 002°56'0 0.0
2017-May-16 16:27N 51°14' E 002°56'0 0.0
2017-May-16 15:58N 51°14' E 002°56'0 0.0
2017-May-16 15:29N 51°14' E 002°56'0 0.0
2017-May-16 14:58N 51°14' E 002°56'0 0.0
2017-May-16 14:00N 51°14' E 002°56'3 5.3
2017-May-16 13:30N 51°16' E 002°54'5 8.9
2017-May-16 13:00N 51°19' E 002°49'4 8.6
2017-May-16 12:30N 51°21' E 002°43'4 8.9
2017-May-16 12:00N 51°25' E 002°39'2 3.0
2017-May-16 11:29N 51°26' E 002°39'4 7.8
2017-May-16 10:59N 51°30' E 002°39'3 6.0
2017-May-16 10:29N 51°33' E 002°39'4 7.4
2017-May-16 10:00N 51°30' E 002°39'0 0.8
2017-May-16 09:29N 51°30' E 002°39'0 0.3
2017-May-16 08:49N 51°30' E 002°39'3 8.0
2017-May-16 08:30N 51°28' E 002°39'0 0.5
2017-May-16 08:00N 51°27' E 002°39'2 4.4
2017-May-16 07:30N 51°25' E 002°39'611.9
2017-May-16 07:00N 51°21' E 002°45'611.7
2017-May-16 06:30N 51°17' E 002°53'4 8.0
2017-May-16 06:00N 51°14' E 002°56'0 0.0
2017-May-16 05:30N 51°14' E 002°56'0 0.0
2017-May-16 04:59N 51°14' E 002°56'0 0.0
2017-May-16 04:30N 51°14' E 002°56'0 0.0
2017-May-16 04:00N 51°14' E 002°56'0 0.0
2017-May-16 03:30N 51°14' E 002°56'0 0.0
2017-May-16 02:59N 51°14' E 002°56'0 0.0
2017-May-16 02:30N 51°14' E 002°56'0 0.0
2017-May-16 01:57N 51°14' E 002°56'0 0.0
2017-May-16 01:30N 51°14' E 002°56'0 0.0
2017-May-16 00:59N 51°14' E 002°56'0 0.0
2017-May-16 00:21N 51°14' E 002°56'0 0.0
2017-May-15 23:54N 51°14' E 002°56'0 0.0
2017-May-15 23:28N 51°14' E 002°56'0 0.0
2017-May-15 21:55N 51°14' E 002°56'0 0.0
2017-May-15 20:22N 51°14' E 002°56'0 0.0
2017-May-15 20:00N 51°14' E 002°56'0 0.0
2017-May-15 19:29N 51°14' E 002°56'0 0.0
2017-May-15 19:00N 51°14' E 002°56'0 0.0
2017-May-15 18:30N 51°14' E 002°56'0 0.0
2017-May-15 17:57N 51°14' E 002°56'0 0.0
2017-May-15 17:25N 51°14' E 002°56'0 0.0
2017-May-15 16:59N 51°14' E 002°56'0 0.0
2017-May-15 16:30N 51°14' E 002°56'0 0.0
2017-May-15 15:59N 51°14' E 002°56'0 0.0
2017-May-15 15:18N 51°14' E 002°56'0 0.0
2017-May-15 14:52N 51°14' E 002°56'0 0.0
2017-May-15 13:59N 51°14' E 002°56'3 6.0
2017-May-15 13:30N 51°16' E 002°53'510.8
2017-May-15 13:00N 51°20' E 002°47'511.1
2017-May-15 12:30N 51°23' E 002°41'5 7.9
2017-May-15 11:56N 51°27' E 002°38'2 0.5
2017-May-15 08:20N 51°29' E 002°38'4 6.1
2017-May-15 07:44N 51°26' E 002°37'1 4.8
2017-May-15 07:30N 51°25' E 002°38'612.0
2017-May-15 07:01N 51°21' E 002°45'611.7
2017-May-15 06:30N 51°17' E 002°53'4 8.1
2017-May-15 06:01N 51°14' E 002°56'0 0.0
2017-May-15 05:30N 51°14' E 002°56'  

Dump ship's entire track history